createdAt,value
2022-11-07T00:01:23.959Z,21.70
2022-11-07T00:04:31.301Z,21.70
2022-11-07T00:07:34.362Z,21.30
2022-11-07T00:10:37.328Z,20.70
2022-11-07T00:13:40.312Z,22.30
2022-11-07T00:16:44.869Z,21.60
2022-11-07T00:19:49.337Z,21.10
2022-11-07T00:22:52.309Z,21.80
2022-11-07T00:26:00.768Z,22.20
2022-11-07T00:29:06.517Z,21.70
2022-11-07T00:32:09.501Z,20.80
2022-11-07T00:35:12.421Z,21.80
2022-11-07T00:38:15.564Z,20.10
2022-11-07T00:41:19.302Z,20.40
2022-11-07T00:44:22.854Z,20.30
2022-11-07T00:47:25.820Z,20.00
2022-11-07T00:50:28.754Z,20.30
2022-11-07T00:53:31.686Z,20.80
2022-11-07T00:56:34.676Z,20.40
2022-11-07T00:59:37.551Z,20.40
2022-11-07T01:02:40.541Z,20.00
2022-11-07T01:05:43.568Z,19.90
2022-11-07T01:08:46.567Z,20.60
2022-11-07T01:11:49.980Z,20.80
2022-11-07T01:14:52.893Z,21.60
2022-11-07T01:17:55.884Z,22.40
2022-11-07T01:20:58.902Z,21.30
2022-11-07T01:24:03.603Z,22.30
2022-11-07T01:27:06.603Z,22.10
2022-11-07T01:30:10.121Z,21.90
2022-11-07T01:33:13.644Z,20.90
2022-11-07T01:36:17.981Z,21.60
2022-11-07T01:39:20.877Z,20.30
2022-11-07T01:42:24.463Z,21.10
2022-11-07T01:45:29.879Z,20.30
2022-11-07T01:48:33.053Z,19.80
2022-11-07T01:51:41.721Z,18.90
2022-11-07T01:54:55.088Z,20.00
2022-11-07T01:58:03.186Z,18.20
2022-11-07T02:01:06.087Z,18.40
2022-11-07T02:04:10.518Z,18.90
2022-11-07T02:07:18.812Z,17.50
2022-11-07T02:10:21.890Z,18.30
2022-11-07T02:13:28.102Z,18.80
2022-11-07T02:16:32.844Z,19.40
2022-11-07T02:19:49.890Z,18.80
2022-11-07T02:22:57.218Z,17.90
2022-11-07T02:26:00.361Z,19.50
2022-11-07T02:29:09.478Z,19.80
2022-11-07T02:32:12.867Z,19.30
2022-11-07T02:35:46.626Z,19.00
2022-11-07T02:38:57.507Z,19.00
2022-11-07T02:42:02.583Z,19.00
2022-11-07T02:45:06.351Z,18.30
2022-11-07T02:48:09.584Z,19.20
2022-11-07T02:51:13.211Z,18.40
2022-11-07T02:54:16.184Z,19.60
2022-11-07T02:57:19.119Z,18.10
2022-11-07T03:00:22.151Z,18.20
2022-11-07T03:03:25.109Z,17.70
2022-11-07T03:06:28.364Z,18.20
2022-11-07T03:09:31.495Z,18.10
2022-11-07T03:12:34.606Z,18.50
2022-11-07T03:15:37.534Z,19.50
2022-11-07T03:18:40.619Z,19.10
2022-11-07T03:21:43.577Z,18.90
2022-11-07T03:24:46.561Z,19.50
2022-11-07T03:27:50.417Z,18.30
2022-11-07T03:30:53.731Z,18.70
2022-11-07T03:33:56.821Z,18.60
2022-11-07T03:36:59.772Z,19.20
2022-11-07T03:40:02.836Z,20.90
2022-11-07T03:43:05.856Z,20.50
2022-11-07T03:46:08.792Z,21.40
2022-11-07T03:49:11.715Z,20.40
2022-11-07T03:52:14.641Z,21.20
2022-11-07T03:55:18.374Z,20.00
2022-11-07T03:58:21.789Z,21.70
2022-11-07T04:01:24.857Z,19.80
2022-11-07T04:04:28.069Z,20.80
2022-11-07T04:07:31.069Z,18.80
2022-11-07T04:10:34.055Z,18.40
2022-11-07T04:13:55.860Z,19.10
2022-11-07T04:17:17.459Z,19.20
2022-11-07T04:20:20.577Z,18.50
2022-11-07T04:23:23.541Z,18.50
2022-11-07T04:26:45.070Z,19.20
2022-11-07T04:29:48.039Z,20.90
2022-11-07T04:32:56.904Z,21.10
2022-11-07T04:35:59.953Z,24.00
2022-11-07T04:39:03.038Z,23.90
2022-11-07T04:42:05.998Z,22.40
2022-11-07T04:45:09.595Z,22.00
2022-11-07T04:48:12.942Z,21.90
2022-11-07T04:51:20.638Z,22.20
2022-11-07T04:54:23.745Z,20.70
2022-11-07T04:57:26.695Z,20.40
2022-11-07T05:00:29.665Z,22.00
2022-11-07T05:03:36.218Z,21.00
2022-11-07T05:06:42.105Z,24.60
2022-11-07T05:09:45.081Z,21.20
2022-11-07T05:12:48.134Z,21.30
2022-11-07T05:15:51.228Z,22.20
2022-11-07T05:18:54.192Z,23.70
2022-11-07T05:22:15.318Z,23.70
2022-11-07T05:25:18.315Z,23.50
2022-11-07T05:28:30.302Z,21.90
2022-11-07T05:31:38.453Z,22.20
2022-11-07T05:34:41.486Z,22.50
2022-11-07T05:37:44.445Z,20.30
2022-11-07T05:40:47.431Z,20.50
2022-11-07T05:43:50.385Z,19.70
2022-11-07T05:46:53.250Z,18.70
2022-11-07T05:49:56.205Z,18.60
2022-11-07T05:52:59.379Z,18.70
2022-11-07T05:56:02.423Z,20.00
2022-11-07T05:59:05.388Z,19.10
2022-11-07T06:02:08.420Z,18.50
2022-11-07T06:05:12.328Z,18.20
2022-11-07T06:08:15.784Z,18.40
2022-11-07T06:11:18.796Z,17.20
2022-11-07T06:14:21.690Z,16.40
2022-11-07T06:17:24.679Z,14.30
2022-11-07T06:20:27.964Z,14.00
2022-11-07T06:23:30.857Z,15.20
2022-11-07T06:26:33.785Z,15.20
2022-11-07T06:29:36.685Z,14.90
2022-11-07T06:32:45.346Z,13.80
2022-11-07T06:35:48.473Z,14.70
2022-11-07T06:38:55.069Z,14.30
2022-11-07T06:41:57.950Z,13.10
2022-11-07T06:45:00.846Z,13.60
2022-11-07T06:48:04.537Z,12.90
2022-11-07T06:51:10.042Z,14.50
2022-11-07T06:54:13.392Z,12.90
2022-11-07T06:57:16.536Z,12.90
2022-11-07T07:00:19.626Z,13.10
2022-11-07T07:03:22.514Z,12.60
2022-11-07T07:06:25.512Z,12.80
2022-11-07T07:09:28.507Z,12.00
2022-11-07T07:12:31.457Z,12.20
2022-11-07T07:15:49.387Z,11.60
2022-11-07T07:18:53.626Z,11.60
2022-11-07T07:21:56.808Z,10.10
2022-11-07T07:24:59.768Z,9.60
2022-11-07T07:28:02.642Z,10.10
2022-11-07T07:31:14.589Z,9.80
2022-11-07T07:34:17.557Z,9.20
2022-11-07T07:37:20.504Z,8.10
2022-11-07T07:40:23.495Z,8.60
2022-11-07T07:43:27.855Z,8.10
2022-11-07T07:46:30.830Z,8.20
2022-11-07T07:49:33.845Z,8.10
2022-11-07T07:52:37.746Z,7.60
2022-11-07T07:55:41.759Z,7.70
2022-11-07T07:58:45.762Z,7.20
2022-11-07T08:01:53.555Z,7.10
2022-11-07T08:04:59.834Z,6.50
2022-11-07T08:08:02.856Z,6.10
2022-11-07T08:11:08.644Z,6.60
2022-11-07T08:14:11.912Z,6.40
2022-11-07T08:17:14.904Z,6.50
2022-11-07T08:20:24.615Z,5.90
2022-11-07T08:23:27.758Z,5.50
2022-11-07T08:26:31.461Z,5.70
2022-11-07T08:29:34.503Z,5.60
2022-11-07T08:32:37.543Z,5.50
2022-11-07T08:35:42.731Z,5.40
2022-11-07T08:38:46.009Z,6.10
2022-11-07T08:41:49.055Z,5.50
2022-11-07T08:44:52.187Z,5.90
2022-11-07T08:47:59.347Z,5.20
2022-11-07T08:51:05.200Z,5.90
2022-11-07T08:54:08.229Z,5.60
2022-11-07T08:57:11.668Z,6.60
2022-11-07T09:00:14.861Z,5.50
2022-11-07T09:03:39.128Z,6.00
2022-11-07T09:06:42.451Z,5.50
2022-11-07T09:09:45.460Z,5.60
2022-11-07T09:12:49.816Z,6.10
2022-11-07T09:15:59.408Z,6.10
2022-11-07T09:19:04.834Z,6.60
2022-11-07T09:22:07.968Z,7.10
2022-11-07T09:25:11.537Z,13.10
2022-11-07T09:28:15.197Z,6.20
2022-11-07T09:31:20.549Z,5.80
2022-11-07T09:34:23.552Z,5.40
2022-11-07T09:37:26.611Z,6.10
2022-11-07T09:40:52.697Z,6.90
2022-11-07T09:44:11.080Z,6.50
2022-11-07T09:47:29.451Z,6.10
2022-11-07T09:50:39.208Z,6.10
2022-11-07T09:53:47.372Z,6.30
2022-11-07T09:56:51.195Z,6.80
2022-11-07T09:59:57.785Z,5.90
2022-11-07T10:03:02.270Z,5.80
2022-11-07T10:06:27.302Z,6.40
2022-11-07T10:09:57.517Z,5.70
2022-11-07T10:13:34.825Z,5.40
2022-11-07T10:17:09.021Z,6.40
2022-11-07T10:20:30.320Z,5.80
2022-11-07T10:23:52.333Z,6.10
2022-11-07T10:26:56.665Z,6.50
2022-11-07T10:30:01.525Z,6.20
2022-11-07T10:33:20.979Z,6.40
2022-11-07T10:36:30.128Z,6.10
2022-11-07T10:39:33.147Z,5.90
2022-11-07T10:42:36.135Z,5.60
2022-11-07T10:45:40.112Z,5.90
2022-11-07T10:48:53.423Z,5.30
2022-11-07T10:52:16.911Z,5.70
2022-11-07T10:55:20.751Z,5.60
2022-11-07T10:58:35.886Z,5.90
2022-11-07T11:01:39.007Z,5.40
2022-11-07T11:04:50.894Z,5.70
2022-11-07T11:07:56.850Z,5.30
2022-11-07T11:11:00.006Z,5.60
2022-11-07T11:14:09.181Z,5.60
2022-11-07T11:17:26.500Z,4.80
2022-11-07T11:20:44.164Z,5.00
2022-11-07T11:23:48.357Z,4.80
2022-11-07T11:26:53.823Z,5.00
2022-11-07T11:29:57.103Z,4.90
2022-11-07T11:33:09.005Z,4.40
2022-11-07T11:36:23.387Z,4.70
2022-11-07T11:39:39.290Z,4.80
2022-11-07T11:43:00.011Z,4.70
2022-11-07T11:46:36.798Z,4.40
2022-11-07T11:49:59.441Z,4.80
2022-11-07T11:53:02.459Z,5.10
2022-11-07T11:56:09.160Z,4.80
2022-11-07T11:59:30.772Z,5.20
2022-11-07T12:02:48.429Z,9.30
2022-11-07T12:06:13.935Z,4.80
2022-11-07T12:09:33.132Z,4.90
2022-11-07T12:13:10.001Z,4.50
2022-11-07T12:16:31.167Z,4.70
2022-11-07T12:19:38.956Z,5.00
2022-11-07T12:22:53.078Z,4.60
2022-11-07T12:26:14.770Z,4.50
2022-11-07T12:29:34.942Z,5.00
2022-11-07T12:32:45.554Z,5.00
2022-11-07T12:36:00.431Z,4.60
2022-11-07T12:39:37.968Z,8.10
2022-11-07T12:43:13.793Z,5.30
2022-11-07T12:46:27.064Z,5.40
2022-11-07T12:50:04.353Z,4.80
2022-11-07T12:53:13.686Z,5.20
2022-11-07T12:56:23.339Z,5.00
2022-11-07T12:59:29.790Z,4.40
2022-11-07T13:02:53.923Z,4.50
2022-11-07T13:06:09.898Z,5.80
2022-11-07T13:09:31.427Z,5.00
2022-11-07T13:12:41.235Z,5.20
2022-11-07T13:16:13.396Z,5.40
2022-11-07T13:19:21.126Z,5.40
2022-11-07T13:22:32.682Z,5.50
2022-11-07T13:25:35.958Z,5.00
2022-11-07T13:28:40.254Z,5.00
2022-11-07T13:31:45.607Z,5.10
2022-11-07T13:35:07.183Z,5.40
2022-11-07T13:38:20.291Z,5.40
2022-11-07T13:41:25.097Z,5.70
2022-11-07T13:44:32.886Z,6.40
2022-11-07T13:47:40.775Z,7.40
2022-11-07T13:50:50.567Z,5.10
2022-11-07T13:54:04.833Z,4.80
2022-11-07T13:57:20.765Z,5.10
2022-11-07T14:00:23.940Z,4.60
2022-11-07T14:03:28.073Z,5.10
2022-11-07T14:06:32.113Z,5.10
2022-11-07T14:09:35.309Z,5.50
2022-11-07T14:12:40.023Z,5.70
2022-11-07T14:15:55.903Z,5.40
2022-11-07T14:19:07.110Z,5.30
2022-11-07T14:22:25.585Z,5.60
2022-11-07T14:25:33.546Z,5.30
2022-11-07T14:28:40.496Z,5.20
2022-11-07T14:31:45.448Z,5.70
2022-11-07T14:34:50.456Z,5.50
2022-11-07T14:37:54.214Z,5.90
2022-11-07T14:41:01.419Z,6.10
2022-11-07T14:44:12.766Z,6.40
2022-11-07T14:47:22.013Z,7.50
2022-11-07T14:50:28.038Z,6.60
2022-11-07T14:53:37.612Z,6.50
2022-11-07T14:56:45.605Z,6.00
2022-11-07T14:59:48.945Z,5.80
2022-11-07T15:02:55.393Z,4.80
2022-11-07T15:05:59.067Z,4.80
2022-11-07T15:09:05.627Z,6.00
2022-11-07T15:12:17.560Z,5.50
2022-11-07T15:15:35.654Z,5.70
2022-11-07T15:18:42.945Z,5.80
2022-11-07T15:21:58.069Z,6.60
2022-11-07T15:25:01.280Z,5.80
2022-11-07T15:28:19.942Z,6.50
2022-11-07T15:31:29.474Z,6.70
2022-11-07T15:34:58.291Z,6.50
2022-11-07T15:38:00.956Z,7.20
2022-11-07T15:41:04.161Z,7.40
2022-11-07T15:44:07.184Z,7.10
2022-11-07T15:47:19.288Z,7.30
2022-11-07T15:50:24.805Z,7.10
2022-11-07T15:53:29.433Z,7.60
2022-11-07T15:56:32.391Z,7.50
2022-11-07T15:59:37.144Z,7.60
2022-11-07T16:02:42.360Z,8.20
2022-11-07T16:05:47.342Z,10.30
2022-11-07T16:08:50.345Z,11.40
2022-11-07T16:11:53.323Z,16.20
2022-11-07T16:14:59.298Z,15.10
2022-11-07T16:18:02.828Z,13.10
2022-11-07T16:21:06.206Z,13.10
2022-11-07T16:24:09.444Z,13.40
2022-11-07T16:27:18.452Z,13.90
2022-11-07T16:30:22.236Z,14.10
2022-11-07T16:33:26.155Z,13.40
2022-11-07T16:36:32.395Z,14.60
2022-11-07T16:39:35.342Z,14.00
2022-11-07T16:42:38.359Z,14.90
2022-11-07T16:45:55.262Z,14.30
2022-11-07T16:49:12.655Z,14.40
2022-11-07T16:52:18.282Z,14.50
2022-11-07T16:55:21.163Z,23.30
2022-11-07T16:58:30.349Z,17.80
2022-11-07T17:01:34.277Z,13.70
2022-11-07T17:04:37.950Z,12.60
2022-11-07T17:07:41.025Z,13.50
2022-11-07T17:10:45.552Z,13.70
2022-11-07T17:13:48.524Z,12.00
2022-11-07T17:16:51.504Z,12.80
2022-11-07T17:19:54.480Z,16.80
2022-11-07T17:22:57.926Z,22.40
2022-11-07T17:26:02.586Z,17.50
2022-11-07T17:29:08.374Z,12.60
2022-11-07T17:32:11.260Z,14.20
2022-11-07T17:38:37.425Z,13.30
2022-11-07T17:41:40.983Z,12.60
2022-11-07T17:44:43.960Z,12.30
2022-11-07T17:47:46.923Z,11.80
2022-11-07T17:50:49.854Z,11.90
2022-11-07T17:53:53.907Z,12.70
2022-11-07T17:56:56.852Z,12.20
2022-11-07T18:00:00.062Z,13.90
2022-11-07T18:03:03.251Z,13.70
2022-11-07T18:06:06.490Z,14.10
2022-11-07T18:09:17.225Z,14.00
2022-11-07T18:12:20.121Z,15.20
2022-11-07T18:15:23.030Z,16.60
2022-11-07T18:18:27.166Z,17.60
2022-11-07T18:21:33.297Z,17.20
2022-11-07T18:24:36.319Z,16.40
2022-11-07T18:27:39.327Z,16.60
2022-11-07T18:30:42.354Z,17.30
2022-11-07T18:34:28.988Z,16.10
2022-11-07T18:37:40.749Z,16.60
2022-11-07T18:41:02.965Z,16.60
2022-11-07T18:44:23.153Z,17.70
2022-11-07T18:47:26.396Z,19.60
2022-11-07T18:50:29.496Z,19.10
2022-11-07T18:53:32.674Z,19.90
2022-11-07T18:56:35.737Z,18.90
2022-11-07T18:59:39.649Z,20.00
2022-11-07T19:02:42.627Z,19.30
2022-11-07T19:05:45.597Z,20.20
2022-11-07T19:08:49.252Z,19.90
2022-11-07T19:11:52.405Z,20.80
2022-11-07T19:14:55.567Z,22.50
2022-11-07T19:17:58.569Z,21.30
2022-11-07T19:24:35.381Z,21.50
2022-11-07T19:27:38.474Z,21.70
2022-11-07T19:30:47.395Z,21.20
2022-11-07T19:33:50.520Z,20.70
2022-11-07T19:36:53.793Z,19.60
2022-11-07T19:39:56.890Z,20.10
2022-11-07T19:43:01.540Z,19.90
2022-11-07T19:46:11.311Z,20.10
2022-11-07T19:49:14.288Z,19.80
2022-11-07T19:52:17.294Z,19.70
2022-11-07T19:55:20.343Z,19.20
2022-11-07T19:58:23.265Z,20.20
2022-11-07T20:01:29.781Z,20.80
2022-11-07T20:04:32.809Z,19.90
2022-11-07T20:07:35.959Z,21.10
2022-11-07T20:10:45.744Z,20.30
2022-11-07T20:13:48.862Z,19.00
2022-11-07T20:16:52.129Z,19.40
2022-11-07T20:19:55.192Z,17.60
2022-11-07T20:23:00.315Z,16.70
2022-11-07T20:26:15.037Z,16.80
2022-11-07T20:29:19.223Z,17.90
2022-11-07T20:32:22.348Z,16.40
2022-11-07T20:35:25.338Z,17.80
2022-11-07T20:38:29.679Z,17.60
2022-11-07T20:41:33.441Z,16.30
2022-11-07T20:44:36.431Z,17.70
2022-11-07T20:47:40.281Z,19.00
2022-11-07T20:50:43.393Z,17.80
2022-11-07T20:53:50.411Z,17.60
2022-11-07T20:56:53.797Z,16.80
2022-11-07T20:59:56.763Z,17.60
2022-11-07T21:02:59.833Z,17.80
2022-11-07T21:06:03.616Z,18.50
2022-11-07T21:09:07.472Z,18.10
2022-11-07T21:12:11.378Z,17.20
2022-11-07T21:15:14.487Z,18.50
2022-11-07T21:18:17.735Z,17.70
2022-11-07T21:21:23.679Z,19.00
2022-11-07T21:24:30.736Z,18.20
2022-11-07T21:27:36.345Z,18.60
2022-11-07T21:30:39.785Z,18.60
2022-11-07T21:33:42.881Z,17.70
2022-11-07T21:36:45.809Z,17.60
2022-11-07T21:39:48.832Z,18.60
2022-11-07T21:42:54.982Z,18.00
2022-11-07T21:46:19.292Z,17.50
2022-11-07T21:49:22.364Z,18.00
2022-11-07T21:52:25.507Z,18.20
2022-11-07T21:55:28.411Z,17.10
2022-11-07T21:58:31.432Z,16.20
2022-11-07T22:01:37.147Z,17.90
2022-11-07T22:04:42.949Z,17.00
2022-11-07T22:07:46.023Z,17.00
2022-11-07T22:10:49.126Z,16.60
2022-11-07T22:13:52.128Z,16.80
2022-11-07T22:16:55.917Z,18.10
2022-11-07T22:19:58.988Z,17.90
2022-11-07T22:23:02.064Z,17.60
2022-11-07T22:26:15.412Z,18.10
2022-11-07T22:29:18.975Z,18.60
2022-11-07T22:32:22.231Z,17.50
2022-11-07T22:35:25.393Z,18.00
2022-11-07T22:38:28.537Z,19.30
2022-11-07T22:41:31.789Z,18.70
2022-11-07T22:44:34.810Z,19.00
2022-11-07T22:47:37.899Z,18.00
2022-11-07T22:50:43.243Z,17.00
2022-11-07T22:53:46.403Z,18.40
2022-11-07T22:56:49.509Z,16.80
2022-11-07T22:59:53.503Z,16.50
2022-11-07T23:02:57.048Z,17.30
2022-11-07T23:06:04.712Z,17.20
2022-11-07T23:09:07.958Z,18.70
2022-11-07T23:12:11.035Z,17.60
2022-11-07T23:15:14.160Z,18.80
2022-11-07T23:18:17.377Z,18.10
2022-11-07T23:21:20.921Z,17.70
2022-11-07T23:24:24.232Z,17.70
2022-11-07T23:27:31.036Z,16.40
2022-11-07T23:30:37.996Z,16.90
2022-11-07T23:33:41.182Z,16.80
2022-11-07T23:36:44.974Z,16.60
2022-11-07T23:39:48.152Z,16.70
2022-11-07T23:42:51.192Z,17.20
2022-11-07T23:46:14.711Z,17.30
2022-11-07T23:49:36.198Z,18.10
2022-11-07T23:52:39.204Z,17.50
2022-11-07T23:55:42.458Z,17.60
2022-11-07T23:59:04.687Z,18.20
